Air Navigation Services of Czech Republic
Airport: LKMT Updated:  13.11.2018 19:36:06  UTC
 METAR LKMT 13.11. 19:30 ...
METAR LKMT 131930Z 22010KT 6000 SCT017 BKN038 11/09 Q1026 NOSIG RMK REG QNH 1024=
 TAF LKMT 13.11. 17:00 ...
TAF LKMT 131700Z 1318/1500 22008KT 6000 NSC      BECMG 1318/1320 SCT010 BKN016      TEMPO 1320/1322 2000 -RA BR BKN005 OVC012      BECMG 1322/1401 CAVOK      BECMG 1414/1416 VRB02KT=